createdAt,value
2022-09-29T00:00:00.530Z,96733.00
2022-09-29T00:00:11.981Z,96731.00
2022-09-29T00:00:20.521Z,96731.00
2022-09-29T00:00:30.611Z,96735.00
2022-09-29T00:00:40.542Z,96733.00
2022-09-29T00:00:50.531Z,96731.00
2022-09-29T00:01:00.513Z,96733.00
2022-09-29T00:01:10.533Z,96735.00
2022-09-29T00:01:22.008Z,96731.00
2022-09-29T00:01:30.533Z,96735.00
2022-09-29T00:01:41.536Z,96735.00
2022-09-29T00:01:52.010Z,96733.00
2022-09-29T00:02:02.039Z,96735.00
2022-09-29T00:02:10.603Z,96735.00
2022-09-29T00:02:20.492Z,96731.00
2022-09-29T00:02:31.952Z,96735.00
2022-09-29T00:02:40.548Z,96733.00
2022-09-29T00:02:51.023Z,96733.00
2022-09-29T00:03:02.045Z,96733.00
2022-09-29T00:03:12.019Z,96731.00
2022-09-29T00:03:20.570Z,96733.00
2022-09-29T00:03:31.996Z,96735.00
2022-09-29T00:03:41.144Z,96733.00
2022-09-29T00:03:50.481Z,96733.00
2022-09-29T00:04:00.481Z,96735.00
2022-09-29T00:04:11.948Z,96735.00
2022-09-29T00:04:21.930Z,96735.00
2022-09-29T00:04:30.481Z,96735.00
2022-09-29T00:04:41.462Z,96733.00
2022-09-29T00:04:50.493Z,96733.00
2022-09-29T00:05:00.512Z,96735.00
2022-09-29T00:05:11.173Z,96733.00
2022-09-29T00:05:21.192Z,96733.00
2022-09-29T00:05:31.921Z,96735.00
2022-09-29T00:05:40.463Z,96733.00
2022-09-29T00:05:50.482Z,96733.00
2022-09-29T00:06:01.941Z,96729.00
2022-09-29T00:06:11.928Z,96733.00
2022-09-29T00:06:21.913Z,96733.00
2022-09-29T00:06:31.952Z,96733.00
2022-09-29T00:06:41.943Z,96735.00
2022-09-29T00:06:50.914Z,96733.00
2022-09-29T00:07:00.477Z,96733.00
2022-09-29T00:07:10.495Z,96735.00
2022-09-29T00:07:21.494Z,96733.00
2022-09-29T00:07:31.943Z,96733.00
2022-09-29T00:07:41.922Z,96731.00
2022-09-29T00:07:51.914Z,96731.00
2022-09-29T00:08:00.513Z,96731.00
2022-09-29T00:08:10.522Z,96731.00
2022-09-29T00:08:21.313Z,96731.00
2022-09-29T00:08:31.353Z,96733.00
2022-09-29T00:08:41.384Z,96733.00
2022-09-29T00:08:50.502Z,96731.00
2022-09-29T00:09:00.433Z,96731.00
2022-09-29T00:09:11.900Z,96729.00
2022-09-29T00:09:21.893Z,96731.00
2022-09-29T00:09:30.463Z,96733.00
2022-09-29T00:09:40.475Z,96735.00
2022-09-29T00:09:50.433Z,96731.00
2022-09-29T00:10:00.471Z,96735.00
2022-09-29T00:10:10.465Z,96729.00
2022-09-29T00:10:21.224Z,96735.00
2022-09-29T00:10:30.443Z,96731.00
2022-09-29T00:10:40.422Z,96731.00
2022-09-29T00:10:51.383Z,96731.00
2022-09-29T00:11:00.443Z,96733.00
2022-09-29T00:11:11.884Z,96731.00
2022-09-29T00:11:20.433Z,96733.00
2022-09-29T00:11:30.465Z,96731.00
2022-09-29T00:11:40.413Z,96731.00
2022-09-29T00:11:50.436Z,96731.00
2022-09-29T00:12:00.453Z,96731.00
2022-09-29T00:12:10.404Z,96731.00
2022-09-29T00:12:20.500Z,96731.00
2022-09-29T00:12:31.223Z,96731.00
2022-09-29T00:12:41.893Z,96731.00
2022-09-29T00:12:50.455Z,96731.00
2022-09-29T00:13:00.435Z,96731.00
2022-09-29T00:13:11.893Z,96733.00
2022-09-29T00:13:20.413Z,96729.00
2022-09-29T00:13:31.884Z,96729.00
2022-09-29T00:13:41.895Z,96729.00
2022-09-29T00:13:50.404Z,96731.00
2022-09-29T00:14:00.444Z,96731.00
2022-09-29T00:14:10.423Z,96729.00
2022-09-29T00:14:20.547Z,96731.00
2022-09-29T00:14:30.414Z,96731.00
2022-09-29T00:14:42.724Z,96731.00
2022-09-29T00:14:51.864Z,96731.00
2022-09-29T00:15:01.234Z,96733.00
2022-09-29T00:15:11.853Z,96731.00
2022-09-29T00:15:20.425Z,96733.00
2022-09-29T00:15:30.431Z,96735.00
2022-09-29T00:15:41.884Z,96733.00
2022-09-29T00:15:51.197Z,96731.00
2022-09-29T00:16:00.470Z,96733.00
2022-09-29T00:16:10.437Z,96733.00
2022-09-29T00:16:21.919Z,96731.00
2022-09-29T00:16:30.468Z,96733.00
2022-09-29T00:16:40.448Z,96733.00
2022-09-29T00:16:51.842Z,96735.00
2022-09-29T00:17:00.400Z,96733.00
2022-09-29T00:17:11.858Z,96733.00
2022-09-29T00:17:21.848Z,96733.00
2022-09-29T00:17:31.854Z,96735.00
2022-09-29T00:17:46.573Z,96735.00
2022-09-29T00:18:12.669Z,96735.00
2022-09-29T00:18:14.149Z,96731.00
2022-09-29T00:18:16.470Z,96735.00
2022-09-29T00:18:22.235Z,96737.00
2022-09-29T00:18:30.784Z,96735.00
2022-09-29T00:18:40.814Z,96735.00
2022-09-29T00:18:52.686Z,96735.00
2022-09-29T00:19:00.834Z,96733.00
2022-09-29T00:19:12.214Z,96733.00
2022-09-29T00:19:22.280Z,96733.00
2022-09-29T00:19:30.795Z,96733.00
2022-09-29T00:19:40.787Z,96733.00
2022-09-29T00:19:50.785Z,96733.00
2022-09-29T00:20:02.288Z,96733.00
2022-09-29T00:20:12.225Z,96731.00
2022-09-29T00:20:22.226Z,96731.00
2022-09-29T00:20:30.805Z,96731.00
2022-09-29T00:20:40.786Z,96731.00
2022-09-29T00:20:50.802Z,96733.00
2022-09-29T00:21:01.686Z,96731.00
2022-09-29T00:21:10.806Z,96731.00
2022-09-29T00:21:22.235Z,96733.00
2022-09-29T00:21:32.236Z,96733.00
2022-09-29T00:21:42.226Z,96731.00
2022-09-29T00:21:51.607Z,96731.00
2022-09-29T00:22:02.235Z,96733.00
2022-09-29T00:22:12.217Z,96733.00
2022-09-29T00:22:22.223Z,96735.00
2022-09-29T00:22:32.205Z,96735.00
2022-09-29T00:22:41.526Z,96733.00
2022-09-29T00:22:50.763Z,96733.00
2022-09-29T00:23:00.774Z,96731.00
2022-09-29T00:23:12.212Z,96733.00
2022-09-29T00:23:22.207Z,96731.00
2022-09-29T00:23:30.783Z,96731.00
2022-09-29T00:23:42.205Z,96733.00
2022-09-29T00:23:50.799Z,96731.00
2022-09-29T00:24:00.836Z,96729.00
2022-09-29T00:24:10.765Z,96731.00
2022-09-29T00:24:21.616Z,96731.00
2022-09-29T00:24:30.777Z,96733.00
2022-09-29T00:24:41.738Z,96731.00
2022-09-29T00:24:52.205Z,96733.00
2022-09-29T00:25:00.746Z,96731.00
2022-09-29T00:25:12.196Z,96731.00
2022-09-29T00:25:20.767Z,96733.00
2022-09-29T00:25:30.757Z,96731.00
2022-09-29T00:25:42.195Z,96731.00
2022-09-29T00:25:50.766Z,96733.00
2022-09-29T00:26:00.746Z,96731.00
2022-09-29T00:26:12.195Z,96731.00
2022-09-29T00:26:21.687Z,96731.00
2022-09-29T00:26:30.744Z,96727.00
2022-09-29T00:26:42.186Z,96733.00
2022-09-29T00:26:52.176Z,96735.00
2022-09-29T00:27:02.177Z,96731.00
2022-09-29T00:27:11.606Z,96731.00
2022-09-29T00:27:20.769Z,96733.00
2022-09-29T00:27:32.185Z,96733.00
2022-09-29T00:27:40.717Z,96731.00
2022-09-29T00:27:52.176Z,96733.00
2022-09-29T00:28:01.527Z,96735.00
2022-09-29T00:28:10.765Z,96733.00
2022-09-29T00:28:22.208Z,96733.00
2022-09-29T00:28:32.177Z,96733.00
2022-09-29T00:28:40.734Z,96733.00
2022-09-29T00:28:51.697Z,96731.00
2022-09-29T00:29:00.747Z,96733.00
2022-09-29T00:29:12.167Z,96733.00
2022-09-29T00:29:22.157Z,96731.00
2022-09-29T00:29:32.176Z,96731.00
2022-09-29T00:29:41.328Z,96735.00
2022-09-29T00:29:52.145Z,96733.00
2022-09-29T00:30:00.987Z,96735.00
2022-09-29T00:30:12.137Z,96733.00
2022-09-29T00:30:22.148Z,96735.00
2022-09-29T00:30:31.538Z,96735.00
2022-09-29T00:30:42.145Z,96735.00
2022-09-29T00:30:50.696Z,96735.00
2022-09-29T00:31:02.214Z,96733.00
2022-09-29T00:31:10.735Z,96737.00
2022-09-29T00:31:21.582Z,96735.00
2022-09-29T00:31:32.203Z,96733.00
2022-09-29T00:31:42.182Z,96737.00
2022-09-29T00:31:50.827Z,96737.00
2022-09-29T00:32:02.213Z,96733.00
2022-09-29T00:32:12.140Z,96739.00
2022-09-29T00:32:22.156Z,96737.00
2022-09-29T00:32:32.140Z,96733.00
2022-09-29T00:32:40.703Z,96735.00
2022-09-29T00:32:52.177Z,96735.00
2022-09-29T00:33:00.720Z,96733.00
2022-09-29T00:33:12.138Z,96735.00
2022-09-29T00:33:22.139Z,96737.00
2022-09-29T00:33:32.147Z,96735.00
2022-09-29T00:33:42.138Z,96737.00
2022-09-29T00:33:51.482Z,96735.00
2022-09-29T00:34:02.146Z,96735.00
2022-09-29T00:34:12.166Z,96737.00
2022-09-29T00:34:22.128Z,96737.00
2022-09-29T00:34:30.678Z,96733.00
2022-09-29T00:34:40.688Z,96737.00
2022-09-29T00:34:52.116Z,96737.00
2022-09-29T00:35:00.679Z,96735.00
2022-09-29T00:35:10.678Z,96737.00
2022-09-29T00:35:22.148Z,96737.00
2022-09-29T00:35:32.126Z,96735.00
2022-09-29T00:35:42.128Z,96735.00
2022-09-29T00:35:50.656Z,96735.00
2022-09-29T00:36:00.687Z,96737.00
2022-09-29T00:36:10.678Z,96735.00
2022-09-29T00:36:21.490Z,96737.00
2022-09-29T00:36:30.668Z,96737.00
2022-09-29T00:36:42.119Z,96737.00
2022-09-29T00:36:52.119Z,96737.00
2022-09-29T00:37:00.647Z,96737.00
2022-09-29T00:37:12.106Z,96737.00
2022-09-29T00:37:22.098Z,96737.00
2022-09-29T00:37:30.649Z,96737.00
2022-09-29T00:37:42.109Z,96735.00
2022-09-29T00:37:52.109Z,96739.00
2022-09-29T00:38:02.108Z,96739.00
2022-09-29T00:38:12.110Z,96737.00
2022-09-29T00:38:20.639Z,96737.00
2022-09-29T00:38:31.539Z,96737.00
2022-09-29T00:38:42.109Z,96737.00
2022-09-29T00:38:50.659Z,96735.00
2022-09-29T00:39:02.142Z,96735.00
2022-09-29T00:39:10.638Z,96735.00
2022-09-29T00:39:20.649Z,96735.00
2022-09-29T00:39:30.649Z,96737.00
2022-09-29T00:39:42.098Z,96737.00
2022-09-29T00:39:52.088Z,96733.00
2022-09-29T00:40:00.647Z,96737.00
2022-09-29T00:40:10.649Z,96735.00
2022-09-29T00:40:20.702Z,96737.00
2022-09-29T00:40:32.154Z,96735.00
2022-09-29T00:40:40.693Z,96739.00
2022-09-29T00:40:50.681Z,96735.00
2022-09-29T00:41:00.763Z,96735.00
2022-09-29T00:41:12.100Z,96735.00
2022-09-29T00:41:20.629Z,96733.00
2022-09-29T00:41:30.959Z,96735.00
2022-09-29T00:41:40.904Z,96733.00
2022-09-29T00:41:50.929Z,96735.00
2022-09-29T00:42:01.459Z,96733.00
2022-09-29T00:42:12.099Z,96733.00
2022-09-29T00:42:20.677Z,96731.00
2022-09-29T00:42:30.861Z,96733.00
2022-09-29T00:42:41.000Z,96733.00
2022-09-29T00:42:50.663Z,96733.00
2022-09-29T00:43:00.968Z,96731.00
2022-09-29T00:43:11.007Z,96733.00
2022-09-29T00:43:20.731Z,96731.00
2022-09-29T00:43:30.970Z,96729.00
2022-09-29T00:43:40.807Z,96731.00
2022-09-29T00:43:52.039Z,96731.00
2022-09-29T00:44:02.075Z,96731.00
2022-09-29T00:44:11.038Z,96729.00
2022-09-29T00:44:21.052Z,96729.00
2022-09-29T00:44:31.088Z,96729.00
2022-09-29T00:44:41.010Z,96731.00
2022-09-29T00:44:51.050Z,96729.00
2022-09-29T00:45:00.687Z,96727.00
2022-09-29T00:45:11.120Z,96727.00
2022-09-29T00:45:20.749Z,96727.00
2022-09-29T00:45:31.157Z,96727.00
2022-09-29T00:45:40.649Z,96727.00
2022-09-29T00:45:50.694Z,96727.00
2022-09-29T00:46:00.713Z,96727.00
2022-09-29T00:46:11.211Z,96725.00
2022-09-29T00:46:21.167Z,96725.00
2022-09-29T00:46:31.213Z,96727.00
2022-09-29T00:46:41.131Z,96729.00
2022-09-29T00:46:50.584Z,96727.00
2022-09-29T00:47:00.609Z,96725.00
2022-09-29T00:47:10.559Z,96725.00
2022-09-29T00:47:20.570Z,96727.00
2022-09-29T00:47:30.601Z,96725.00
2022-09-29T00:47:40.560Z,96725.00
2022-09-29T00:47:51.010Z,96725.00
2022-09-29T00:48:00.603Z,96725.00
2022-09-29T00:48:10.651Z,96725.00
2022-09-29T00:48:20.562Z,96725.00
2022-09-29T00:48:30.602Z,96725.00
2022-09-29T00:48:40.580Z,96725.00
2022-09-29T00:48:50.604Z,96723.00
2022-09-29T00:49:00.631Z,96725.00
2022-09-29T00:49:10.601Z,96725.00
2022-09-29T00:49:20.681Z,96723.00
2022-09-29T00:49:30.711Z,96721.00
2022-09-29T00:49:40.641Z,96723.00
2022-09-29T00:49:52.018Z,96725.00
2022-09-29T00:50:00.713Z,96721.00
2022-09-29T00:50:10.751Z,96723.00
2022-09-29T00:50:20.681Z,96721.00
2022-09-29T00:50:30.720Z,96723.00
2022-09-29T00:50:40.752Z,96721.00
2022-09-29T00:50:50.797Z,96723.00
2022-09-29T00:51:00.721Z,96723.00
2022-09-29T00:51:10.758Z,96723.00
2022-09-29T00:51:20.691Z,96727.00
2022-09-29T00:51:30.543Z,96727.00
2022-09-29T00:51:40.759Z,96725.00
2022-09-29T00:51:50.552Z,96725.00
2022-09-29T00:52:00.562Z,96723.00
2022-09-29T00:52:10.865Z,96727.00
2022-09-29T00:52:20.551Z,96727.00
2022-09-29T00:52:30.831Z,96727.00
2022-09-29T00:52:41.982Z,96725.00
2022-09-29T00:52:51.440Z,96725.00
2022-09-29T00:53:00.561Z,96725.00
2022-09-29T00:53:11.991Z,96727.00
2022-09-29T00:53:21.942Z,96727.00
2022-09-29T00:53:30.542Z,96725.00
2022-09-29T00:53:40.542Z,96725.00
2022-09-29T00:53:52.019Z,96725.00
2022-09-29T00:54:01.993Z,96725.00
2022-09-29T00:54:10.541Z,96723.00
2022-09-29T00:54:20.662Z,96725.00
2022-09-29T00:54:31.993Z,96727.00
2022-09-29T00:54:41.511Z,96727.00
2022-09-29T00:54:50.551Z,96727.00
2022-09-29T00:55:00.538Z,96725.00
2022-09-29T00:55:11.991Z,96727.00
2022-09-29T00:55:21.959Z,96727.00
2022-09-29T00:55:31.443Z,96727.00
2022-09-29T00:55:41.980Z,96727.00
2022-09-29T00:55:51.973Z,96725.00
2022-09-29T00:56:01.978Z,96727.00
2022-09-29T00:56:11.990Z,96725.00
2022-09-29T00:56:21.960Z,96725.00
2022-09-29T00:56:31.472Z,96725.00
2022-09-29T00:56:40.521Z,96723.00
2022-09-29T00:56:51.983Z,96725.00
2022-09-29T00:57:00.532Z,96727.00
2022-09-29T00:57:10.532Z,96727.00
2022-09-29T00:57:21.971Z,96725.00
2022-09-29T00:57:31.982Z,96723.00
2022-09-29T00:57:40.512Z,96725.00
2022-09-29T00:57:50.514Z,96725.00
2022-09-29T00:58:00.520Z,96723.00
2022-09-29T00:58:10.533Z,96723.00
2022-09-29T00:58:21.423Z,96723.00
2022-09-29T00:58:30.521Z,96723.00
2022-09-29T00:58:40.522Z,96725.00
2022-09-29T00:58:51.970Z,96723.00
2022-09-29T00:59:01.470Z,96723.00
2022-09-29T00:59:11.953Z,96725.00
2022-09-29T00:59:21.942Z,96721.00
2022-09-29T00:59:30.504Z,96721.00
2022-09-29T00:59:40.493Z,96725.00
2022-09-29T00:59:51.950Z,96723.00
2022-09-29T01:00:00.485Z,96721.00
2022-09-29T01:00:10.502Z,96723.00
2022-09-29T01:00:21.952Z,96721.00
2022-09-29T01:00:30.568Z,96721.00
2022-09-29T01:00:41.976Z,96721.00
2022-09-29T01:00:51.998Z,96723.00
2022-09-29T01:01:00.523Z,96721.00
2022-09-29T01:01:10.535Z,96723.00
2022-09-29T01:01:20.660Z,96723.00
2022-09-29T01:01:31.944Z,96725.00
2022-09-29T01:01:41.986Z,96723.00
2022-09-29T01:01:51.975Z,96723.00
2022-09-29T01:02:00.558Z,96721.00
2022-09-29T01:02:12.018Z,96721.00
2022-09-29T01:02:21.998Z,96723.00
2022-09-29T01:02:30.555Z,96721.00
2022-09-29T01:02:40.472Z,96725.00
2022-09-29T01:02:50.700Z,96725.00
2022-09-29T01:03:01.234Z,96725.00
2022-09-29T01:03:11.924Z,96721.00
2022-09-29T01:03:21.913Z,96719.00
2022-09-29T01:03:30.513Z,96725.00
2022-09-29T01:03:40.454Z,96723.00
2022-09-29T01:03:51.937Z,96723.00
2022-09-29T01:04:01.393Z,96725.00
2022-09-29T01:04:10.491Z,96723.00
2022-09-29T01:04:21.924Z,96725.00
2022-09-29T01:04:31.344Z,96725.00
2022-09-29T01:04:40.455Z,96723.00
2022-09-29T01:04:50.463Z,96723.00
2022-09-29T01:05:01.301Z,96725.00
2022-09-29T01:05:10.463Z,96725.00
2022-09-29T01:05:21.443Z,96721.00
2022-09-29T01:05:30.471Z,96723.00
2022-09-29T01:05:41.933Z,96727.00
2022-09-29T01:05:51.904Z,96723.00
2022-09-29T01:06:00.454Z,96721.00
2022-09-29T01:06:10.494Z,96721.00
2022-09-29T01:06:20.454Z,96721.00
2022-09-29T01:06:30.444Z,96723.00
2022-09-29T01:06:40.487Z,96723.00
2022-09-29T01:06:51.374Z,96721.00
2022-09-29T01:07:00.442Z,96723.00
2022-09-29T01:07:11.904Z,96721.00
2022-09-29T01:07:21.895Z,96721.00
2022-09-29T01:07:31.884Z,96723.00
2022-09-29T01:07:40.466Z,96721.00
2022-09-29T01:07:51.904Z,96721.00
2022-09-29T01:08:01.265Z,96721.00
2022-09-29T01:08:10.444Z,96721.00
2022-09-29T01:08:20.441Z,96721.00
2022-09-29T01:08:30.434Z,96721.00
2022-09-29T01:08:41.895Z,96719.00
2022-09-29T01:08:51.914Z,96721.00
2022-09-29T01:09:01.878Z,96719.00
2022-09-29T01:09:11.882Z,96721.00
2022-09-29T01:09:20.437Z,96721.00
2022-09-29T01:09:31.896Z,96721.00
2022-09-29T01:09:40.447Z,96721.00
2022-09-29T01:09:50.425Z,96719.00
2022-09-29T01:10:00.654Z,96719.00
2022-09-29T01:10:10.413Z,96721.00
2022-09-29T01:10:20.714Z,96721.00
2022-09-29T01:10:30.656Z,96717.00
2022-09-29T01:10:40.415Z,96719.00
2022-09-29T01:10:50.435Z,96721.00
2022-09-29T01:11:00.424Z,96721.00
2022-09-29T01:11:10.434Z,96719.00
2022-09-29T01:11:20.416Z,96719.00
2022-09-29T01:11:30.655Z,96719.00
2022-09-29T01:11:41.843Z,96719.00
2022-09-29T01:11:50.403Z,96717.00
2022-09-29T01:12:00.463Z,96719.00
2022-09-29T01:12:10.405Z,96717.00
2022-09-29T01:12:20.425Z,96717.00
2022-09-29T01:12:30.456Z,96715.00
2022-09-29T01:12:40.406Z,96717.00
2022-09-29T01:12:50.465Z,96717.00
2022-09-29T01:13:00.454Z,96715.00
2022-09-29T01:13:10.423Z,96717.00
2022-09-29T01:13:20.426Z,96717.00
2022-09-29T01:13:30.455Z,96715.00
2022-09-29T01:13:41.839Z,96717.00
2022-09-29T01:13:51.366Z,96715.00
2022-09-29T01:14:00.396Z,96715.00
2022-09-29T01:14:10.522Z,96717.00
2022-09-29T01:14:20.550Z,96715.00
2022-09-29T01:14:30.413Z,96715.00
2022-09-29T01:14:41.396Z,96715.00
2022-09-29T01:14:51.855Z,96713.00
2022-09-29T01:15:00.416Z,96715.00
2022-09-29T01:15:10.421Z,96717.00
2022-09-29T01:15:21.844Z,96717.00
2022-09-29T01:15:31.355Z,96717.00
2022-09-29T01:15:40.466Z,96717.00
2022-09-29T01:15:50.458Z,96715.00
2022-09-29T01:16:00.464Z,96715.00
2022-09-29T01:16:11.922Z,96713.00
2022-09-29T01:16:21.413Z,96719.00
2022-09-29T01:16:30.460Z,96715.00
2022-09-29T01:16:41.919Z,96717.00
2022-09-29T01:16:50.396Z,96715.00
2022-09-29T01:17:01.835Z,96713.00
2022-09-29T01:17:10.405Z,96715.00
2022-09-29T01:17:20.376Z,96717.00
2022-09-29T01:17:31.846Z,96715.00
2022-09-29T01:17:40.406Z,96715.00
2022-09-29T01:17:51.815Z,96717.00
2022-09-29T01:18:00.383Z,96715.00
2022-09-29T01:18:11.834Z,96713.00
2022-09-29T01:18:21.826Z,96717.00
2022-09-29T01:18:30.377Z,96717.00
2022-09-29T01:18:40.377Z,96715.00
2022-09-29T01:18:51.247Z,96715.00
2022-09-29T01:19:00.368Z,96715.00
2022-09-29T01:19:10.378Z,96715.00
2022-09-29T01:19:20.357Z,96717.00
2022-09-29T01:19:30.367Z,96715.00
2022-09-29T01:19:40.358Z,96715.00
2022-09-29T01:19:51.163Z,96717.00
2022-09-29T01:20:04.289Z,96717.00
2022-09-29T01:20:11.807Z,96715.00
2022-09-29T01:20:20.357Z,96717.00
2022-09-29T01:20:30.395Z,96717.00
2022-09-29T01:20:40.448Z,96719.00
2022-09-29T01:20:50.349Z,96719.00
2022-09-29T01:21:00.357Z,96717.00
2022-09-29T01:21:10.368Z,96717.00
2022-09-29T01:21:20.496Z,96717.00
2022-09-29T01:21:30.356Z,96717.00
2022-09-29T01:21:40.338Z,96717.00
2022-09-29T01:21:51.787Z,96717.00
2022-09-29T01:22:00.347Z,96717.00
2022-09-29T01:22:10.357Z,96717.00
2022-09-29T01:22:21.817Z,96717.00
2022-09-29T01:22:30.868Z,96719.00
2022-09-29T01:22:41.787Z,96719.00
2022-09-29T01:22:51.818Z,96717.00
2022-09-29T01:23:00.341Z,96721.00
2022-09-29T01:23:10.365Z,96719.00
2022-09-29T01:23:20.338Z,96717.00
2022-09-29T01:23:30.348Z,96717.00
2022-09-29T01:23:41.779Z,96717.00
2022-09-29T01:23:50.328Z,96717.00
2022-09-29T01:24:01.780Z,96719.00
2022-09-29T01:24:11.808Z,96719.00
2022-09-29T01:24:21.796Z,96719.00
2022-09-29T01:24:30.353Z,96721.00
2022-09-29T01:24:41.787Z,96717.00
2022-09-29T01:24:51.758Z,96719.00
2022-09-29T01:25:01.187Z,96717.00
2022-09-29T01:25:11.766Z,96719.00
2022-09-29T01:25:20.339Z,96721.00
2022-09-29T01:25:30.367Z,96719.00
2022-09-29T01:25:40.358Z,96721.00
2022-09-29T01:25:50.298Z,96721.00
2022-09-29T01:26:00.371Z,96719.00
2022-09-29T01:26:11.031Z,96719.00
2022-09-29T01:26:20.306Z,96719.00
2022-09-29T01:26:30.355Z,96721.00
2022-09-29T01:26:41.777Z,96721.00
2022-09-29T01:26:51.756Z,96719.00
2022-09-29T01:27:01.759Z,96717.00
2022-09-29T01:27:11.236Z,96719.00
2022-09-29T01:27:20.299Z,96721.00
2022-09-29T01:27:30.390Z,96719.00
2022-09-29T01:27:40.299Z,96717.00
2022-09-29T01:27:51.760Z,96717.00
2022-09-29T01:28:01.268Z,96719.00
2022-09-29T01:28:10.300Z,96719.00
2022-09-29T01:28:21.770Z,96719.00
2022-09-29T01:28:30.304Z,96719.00
2022-09-29T01:28:41.768Z,96717.00
2022-09-29T01:28:50.326Z,96715.00
2022-09-29T01:29:00.298Z,96719.00
2022-09-29T01:29:10.298Z,96719.00
2022-09-29T01:29:59.156Z,96719.00
2022-09-29T01:30:09.175Z,96717.00
2022-09-29T01:30:17.705Z,96719.00
2022-09-29T01:30:29.174Z,96717.00
2022-09-29T01:30:37.705Z,96719.00
2022-09-29T01:30:49.176Z,96717.00
2022-09-29T01:30:59.154Z,96719.00
2022-09-29T01:31:08.325Z,96719.00
2022-09-29T01:31:18.458Z,96717.00
2022-09-29T01:31:27.751Z,96719.00
2022-09-29T01:31:38.406Z,96717.00
2022-09-29T01:31:48.349Z,96719.00
2022-09-29T01:31:58.335Z,96719.00
2022-09-29T01:32:07.755Z,96717.00
2022-09-29T01:32:18.305Z,96721.00
2022-09-29T01:32:27.826Z,96715.00
2022-09-29T01:32:38.374Z,96721.00
2022-09-29T01:32:48.413Z,96717.00
2022-09-29T01:32:58.351Z,96715.00
2022-09-29T01:33:08.377Z,96721.00
2022-09-29T01:33:18.415Z,96721.00
2022-09-29T01:33:28.446Z,96719.00
2022-09-29T01:33:37.694Z,96721.00
2022-09-29T01:33:48.416Z,96721.00
2022-09-29T01:33:58.145Z,96717.00
2022-09-29T01:34:08.385Z,96721.00
2022-09-29T01:34:18.594Z,96719.00
2022-09-29T01:34:29.115Z,96719.00
2022-09-29T01:34:39.136Z,96723.00
2022-09-29T01:34:47.693Z,96719.00
2022-09-29T01:34:57.674Z,96719.00
2022-09-29T01:35:07.685Z,96719.00
2022-09-29T01:35:17.695Z,96721.00
2022-09-29T01:35:27.679Z,96721.00
2022-09-29T01:35:37.676Z,96719.00
2022-09-29T01:35:49.127Z,96721.00
2022-09-29T01:35:58.634Z,96721.00
2022-09-29T01:36:09.126Z,96721.00
2022-09-29T01:36:19.126Z,96723.00
2022-09-29T01:36:28.615Z,96723.00
2022-09-29T01:36:37.716Z,96723.00
2022-09-29T01:36:49.128Z,96723.00
2022-09-29T01:36:57.686Z,96721.00
2022-09-29T01:37:08.475Z,96723.00
2022-09-29T01:37:17.675Z,96721.00
2022-09-29T01:37:27.656Z,96723.00
2022-09-29T01:37:39.127Z,96721.00
2022-09-29T01:37:47.657Z,96721.00
2022-09-29T01:37:57.665Z,96721.00
2022-09-29T01:38:09.106Z,96723.00
2022-09-29T01:38:17.677Z,96721.00
2022-09-29T01:38:28.596Z,96723.00
2022-09-29T01:38:39.106Z,96725.00
2022-09-29T01:38:49.111Z,96723.00
2022-09-29T01:38:59.137Z,96723.00
2022-09-29T01:39:07.637Z,96723.00
2022-09-29T01:39:19.114Z,96725.00
2022-09-29T01:39:29.086Z,96723.00
2022-09-29T01:39:39.108Z,96725.00
2022-09-29T01:39:48.466Z,96723.00
2022-09-29T01:39:58.526Z,96725.00
2022-09-29T01:40:07.657Z,96725.00
2022-09-29T01:40:17.693Z,96723.00
2022-09-29T01:40:27.711Z,96723.00
2022-09-29T01:40:37.723Z,96725.00
2022-09-29T01:40:49.133Z,96725.00
2022-09-29T01:40:57.705Z,96727.00
2022-09-29T01:41:07.638Z,96729.00
2022-09-29T01:41:19.126Z,96725.00
2022-09-29T01:41:27.624Z,96723.00
2022-09-29T01:41:37.707Z,96725.00
2022-09-29T01:41:48.538Z,96725.00
2022-09-29T01:41:57.787Z,96725.00
2022-09-29T01:42:09.056Z,96727.00
2022-09-29T01:42:19.068Z,96725.00
2022-09-29T01:42:29.066Z,96725.00
2022-09-29T01:42:38.457Z,96727.00
2022-09-29T01:42:49.089Z,96727.00
2022-09-29T01:42:59.117Z,96727.00
2022-09-29T01:43:07.617Z,96729.00
2022-09-29T01:43:17.636Z,96731.00
2022-09-29T01:43:28.376Z,96729.00
2022-09-29T01:43:37.637Z,96731.00
2022-09-29T01:43:49.070Z,96729.00
2022-09-29T01:43:57.649Z,96729.00
2022-09-29T01:44:07.628Z,96731.00
2022-09-29T01:44:18.649Z,96729.00
2022-09-29T01:44:27.617Z,96731.00
2022-09-29T01:44:39.090Z,96733.00
2022-09-29T01:44:49.069Z,96731.00
2022-09-29T01:44:57.616Z,96729.00
2022-09-29T01:45:09.059Z,96733.00
2022-09-29T01:45:18.557Z,96731.00
2022-09-29T01:45:27.698Z,96731.00
2022-09-29T01:45:39.101Z,96735.00
2022-09-29T01:45:47.689Z,96729.00
2022-09-29T01:45:57.702Z,96733.00
2022-09-29T01:46:07.628Z,96729.00
2022-09-29T01:46:19.120Z,96733.00
2022-09-29T01:46:29.083Z,96733.00
2022-09-29T01:46:39.048Z,96731.00
2022-09-29T01:46:49.038Z,96731.00
2022-09-29T01:46:59.058Z,96731.00
2022-09-29T01:47:07.588Z,96729.00
2022-09-29T01:47:19.050Z,96733.00
2022-09-29T01:47:28.500Z,96729.00
2022-09-29T01:47:37.597Z,96731.00
2022-09-29T01:47:49.039Z,96731.00
2022-09-29T01:47:58.751Z,96729.00
2022-09-29T01:48:07.589Z,96729.00
2022-09-29T01:48:17.679Z,96733.00
2022-09-29T01:48:27.569Z,96733.00
2022-09-29T01:48:37.607Z,96733.00
2022-09-29T01:48:47.613Z,96731.00
2022-09-29T01:48:57.576Z,96731.00
2022-09-29T01:49:07.588Z,96733.00
2022-09-29T01:49:17.660Z,96731.00
2022-09-29T01:49:29.027Z,96733.00
2022-09-29T01:49:38.208Z,96733.00
2022-09-29T01:49:48.226Z,96731.00
2022-09-29T01:49:59.019Z,96733.00
2022-09-29T01:50:08.199Z,96733.00
2022-09-29T01:50:19.018Z,96733.00
2022-09-29T01:50:27.580Z,96731.00
2022-09-29T01:50:37.589Z,96731.00
2022-09-29T01:50:48.228Z,96731.00
2022-09-29T01:50:59.009Z,96731.00
2022-09-29T01:51:09.018Z,96735.00
2022-09-29T01:51:19.009Z,96729.00
2022-09-29T01:51:29.008Z,96735.00
2022-09-29T01:51:39.009Z,96733.00
2022-09-29T01:51:47.557Z,96731.00
2022-09-29T01:51:59.531Z,96733.00
2022-09-29T01:52:08.998Z,96733.00
2022-09-29T01:52:17.558Z,96731.00
2022-09-29T01:52:29.020Z,96733.00
2022-09-29T01:52:38.999Z,96731.00
2022-09-29T01:52:47.559Z,96731.00
2022-09-29T01:52:59.019Z,96731.00
2022-09-29T01:53:08.998Z,96729.00
2022-09-29T01:53:17.546Z,96731.00
2022-09-29T01:53:29.019Z,96731.00
2022-09-29T01:53:38.999Z,96729.00
2022-09-29T01:53:49.017Z,96729.00
2022-09-29T01:53:57.549Z,96731.00
2022-09-29T01:54:07.549Z,96729.00
2022-09-29T01:54:17.687Z,96729.00
2022-09-29T01:54:27.558Z,96731.00
2022-09-29T01:54:37.560Z,96731.00
2022-09-29T01:54:47.560Z,96731.00
2022-09-29T01:54:57.579Z,96731.00
2022-09-29T01:55:07.529Z,96731.00
2022-09-29T01:55:19.009Z,96729.00
2022-09-29T01:55:27.587Z,96731.00
2022-09-29T01:55:37.552Z,96729.00
2022-09-29T01:55:48.249Z,96729.00
2022-09-29T01:55:57.611Z,96731.00
2022-09-29T01:56:07.539Z,96731.00
2022-09-29T01:56:18.419Z,96731.00
2022-09-29T01:56:28.989Z,96731.00
2022-09-29T01:56:37.529Z,96731.00
2022-09-29T01:56:48.991Z,96729.00
2022-09-29T01:56:58.979Z,96729.00
2022-09-29T01:57:08.559Z,96729.00
2022-09-29T01:57:17.571Z,96733.00
2022-09-29T01:57:27.538Z,96731.00
2022-09-29T01:57:39.007Z,96731.00
2022-09-29T01:57:47.510Z,96729.00
2022-09-29T01:57:57.529Z,96729.00